Siloam, Georgia
Current Conditions -  °F | °C
As of 12:55 AM on Friday 28 Nov 2014 (Local Time) from K3J7 Reporting Station
Clear Clear  
Wind Chill: 36°   Ceiling: Unl
Heat Index: 36°   Visibility: 10mi
Dew Point: 30°   Wind: 3mph
Humidity: 81%   Direction: 280°W
Pressure: 30.31"   Gusts: NA
Location:  33.54°N, 83.08°W
Report Text: K3J7 280555Z AUTO 28003KT 10SM CLR 02/M01 A3031 RMK AO2
Loading
Personal Weather Stations






























Interactive Weather Map New forecast layout! Learn more

10-Day Weather Forecast

Advertisements
Track Severe Weather on mobile